sensor_id;sensor_type;location;lat;lon;timestamp;P1;durP1;ratioP1;P2;durP2;ratioP2
23001;SDS011;11667;51.706;4.856;2023-04-19T00:01:06;21.45;;;13.43;;
23001;SDS011;11667;51.706;4.856;2023-04-19T00:03:35;21.05;;;13.90;;
23001;SDS011;11667;51.706;4.856;2023-04-19T00:06:06;24.27;;;15.72;;
23001;SDS011;11667;51.706;4.856;2023-04-19T00:08:36;23.22;;;14.03;;
23001;SDS011;11667;51.706;4.856;2023-04-19T00:11:06;32.25;;;15.50;;
23001;SDS011;11667;51.706;4.856;2023-04-19T00:13:36;25.37;;;15.15;;
23001;SDS011;11667;51.706;4.856;2023-04-19T00:16:05;24.20;;;14.68;;
23001;SDS011;11667;51.706;4.856;2023-04-19T00:18:35;26.68;;;15.55;;
23001;SDS011;11667;51.706;4.856;2023-04-19T00:21:05;24.87;;;15.78;;
23001;SDS011;11667;51.706;4.856;2023-04-19T00:23:34;25.95;;;14.85;;
23001;SDS011;11667;51.706;4.856;2023-04-19T00:26:04;24.98;;;15.25;;
23001;SDS011;11667;51.706;4.856;2023-04-19T00:28:33;26.00;;;15.48;;
23001;SDS011;11667;51.706;4.856;2023-04-19T00:31:03;22.73;;;14.70;;
23001;SDS011;11667;51.706;4.856;2023-04-19T00:33:32;26.85;;;15.95;;
23001;SDS011;11667;51.706;4.856;2023-04-19T00:36:02;25.57;;;15.25;;
23001;SDS011;11667;51.706;4.856;2023-04-19T00:38:31;23.65;;;14.87;;
23001;SDS011;11667;51.706;4.856;2023-04-19T00:41:02;28.60;;;15.98;;
23001;SDS011;11667;51.706;4.856;2023-04-19T00:43:31;26.37;;;15.95;;
23001;SDS011;11667;51.706;4.856;2023-04-19T00:46:01;27.10;;;16.27;;
23001;SDS011;11667;51.706;4.856;2023-04-19T00:48:30;25.80;;;15.75;;
23001;SDS011;11667;51.706;4.856;2023-04-19T00:51:01;27.27;;;15.93;;
23001;SDS011;11667;51.706;4.856;2023-04-19T00:53:31;25.57;;;15.58;;
23001;SDS011;11667;51.706;4.856;2023-04-19T00:56:01;26.23;;;15.45;;
23001;SDS011;11667;51.706;4.856;2023-04-19T00:58:32;26.77;;;15.35;;
23001;SDS011;11667;51.706;4.856;2023-04-19T01:01:02;27.80;;;15.48;;
23001;SDS011;11667;51.706;4.856;2023-04-19T01:03:33;27.00;;;15.65;;
23001;SDS011;11667;51.706;4.856;2023-04-19T01:06:03;24.87;;;15.72;;
23001;SDS011;11667;51.706;4.856;2023-04-19T01:12:22;25.15;;;15.25;;
23001;SDS011;11667;51.706;4.856;2023-04-19T01:14:52;24.32;;;14.38;;
23001;SDS011;11667;51.706;4.856;2023-04-19T01:17:21;23.22;;;14.15;;
23001;SDS011;11667;51.706;4.856;2023-04-19T01:19:57;23.35;;;14.70;;
23001;SDS011;11667;51.706;4.856;2023-04-19T01:22:30;23.20;;;14.28;;
23001;SDS011;11667;51.706;4.856;2023-04-19T01:25:00;26.10;;;15.10;;
23001;SDS011;11667;51.706;4.856;2023-04-19T01:27:30;20.88;;;13.30;;
23001;SDS011;11667;51.706;4.856;2023-04-19T01:30:00;26.27;;;13.40;;
23001;SDS011;11667;51.706;4.856;2023-04-19T01:32:29;23.87;;;13.60;;
23001;SDS011;11667;51.706;4.856;2023-04-19T01:34:59;23.27;;;14.20;;
23001;SDS011;11667;51.706;4.856;2023-04-19T01:37:29;23.35;;;13.72;;
23001;SDS011;11667;51.706;4.856;2023-04-19T01:39:58;25.20;;;13.22;;
23001;SDS011;11667;51.706;4.856;2023-04-19T01:42:28;22.45;;;13.75;;
23001;SDS011;11667;51.706;4.856;2023-04-19T01:44:59;22.62;;;14.05;;
23001;SDS011;11667;51.706;4.856;2023-04-19T01:47:29;24.72;;;14.05;;
23001;SDS011;11667;51.706;4.856;2023-04-19T01:49:58;23.73;;;13.70;;
23001;SDS011;11667;51.706;4.856;2023-04-19T01:52:28;24.75;;;13.88;;
23001;SDS011;11667;51.706;4.856;2023-04-19T01:54:57;25.20;;;13.90;;
23001;SDS011;11667;51.706;4.856;2023-04-19T01:57:28;25.72;;;14.47;;
23001;SDS011;11667;51.706;4.856;2023-04-19T01:59:58;24.32;;;14.03;;
23001;SDS011;11667;51.706;4.856;2023-04-19T02:02:28;22.70;;;14.58;;
23001;SDS011;11667;51.706;4.856;2023-04-19T02:04:59;23.02;;;14.13;;
23001;SDS011;11667;51.706;4.856;2023-04-19T02:07:29;22.17;;;14.05;;
23001;SDS011;11667;51.706;4.856;2023-04-19T02:09:58;23.40;;;14.03;;
23001;SDS011;11667;51.706;4.856;2023-04-19T02:12:28;23.22;;;14.23;;
23001;SDS011;11667;51.706;4.856;2023-04-19T02:14:58;25.27;;;14.95;;
23001;SDS011;11667;51.706;4.856;2023-04-19T02:17:33;26.05;;;14.75;;
23001;SDS011;11667;51.706;4.856;2023-04-19T02:20:03;24.05;;;14.87;;
23001;SDS011;11667;51.706;4.856;2023-04-19T02:22:34;21.65;;;14.43;;
23001;SDS011;11667;51.706;4.856;2023-04-19T02:25:04;23.85;;;13.90;;
23001;SDS011;11667;51.706;4.856;2023-04-19T02:27:34;26.42;;;14.83;;
23001;SDS011;11667;51.706;4.856;2023-04-19T02:30:03;24.40;;;14.58;;
23001;SDS011;11667;51.706;4.856;2023-04-19T02:32:33;23.27;;;13.65;;
23001;SDS011;11667;51.706;4.856;2023-04-19T02:35:04;24.43;;;13.72;;
23001;SDS011;11667;51.706;4.856;2023-04-19T02:37:35;22.32;;;13.70;;
23001;SDS011;11667;51.706;4.856;2023-04-19T02:40:05;22.67;;;14.05;;
23001;SDS011;11667;51.706;4.856;2023-04-19T02:42:35;23.12;;;14.00;;
23001;SDS011;11667;51.706;4.856;2023-04-19T02:45:05;24.32;;;14.63;;
23001;SDS011;11667;51.706;4.856;2023-04-19T02:47:36;25.48;;;14.58;;
23001;SDS011;11667;51.706;4.856;2023-04-19T02:50:06;24.10;;;14.43;;
23001;SDS011;11667;51.706;4.856;2023-04-19T02:55:07;23.20;;;13.88;;
23001;SDS011;11667;51.706;4.856;2023-04-19T02:57:37;22.02;;;13.70;;
23001;SDS011;11667;51.706;4.856;2023-04-19T03:00:08;24.10;;;14.33;;
23001;SDS011;11667;51.706;4.856;2023-04-19T03:02:41;22.55;;;14.20;;
23001;SDS011;11667;51.706;4.856;2023-04-19T03:05:11;23.12;;;14.18;;
23001;SDS011;11667;51.706;4.856;2023-04-19T03:07:40;27.30;;;14.53;;
23001;SDS011;11667;51.706;4.856;2023-04-19T03:10:11;22.95;;;14.18;;
23001;SDS011;11667;51.706;4.856;2023-04-19T03:12:41;25.48;;;14.43;;
23001;SDS011;11667;51.706;4.856;2023-04-19T03:15:10;22.13;;;13.95;;
23001;SDS011;11667;51.706;4.856;2023-04-19T03:17:41;21.70;;;13.93;;
23001;SDS011;11667;51.706;4.856;2023-04-19T03:20:11;25.72;;;13.72;;
23001;SDS011;11667;51.706;4.856;2023-04-19T03:22:43;23.62;;;13.90;;
23001;SDS011;11667;51.706;4.856;2023-04-19T03:25:13;22.10;;;13.15;;
23001;SDS011;11667;51.706;4.856;2023-04-19T03:27:46;23.47;;;13.98;;
23001;SDS011;11667;51.706;4.856;2023-04-19T03:30:18;23.45;;;13.85;;
23001;SDS011;11667;51.706;4.856;2023-04-19T03:32:47;25.85;;;14.40;;
23001;SDS011;11667;51.706;4.856;2023-04-19T03:37:50;23.57;;;13.78;;
23001;SDS011;11667;51.706;4.856;2023-04-19T03:40:20;22.15;;;13.50;;
23001;SDS011;11667;51.706;4.856;2023-04-19T03:42:50;24.72;;;13.35;;
23001;SDS011;11667;51.706;4.856;2023-04-19T03:45:21;25.25;;;14.03;;
23001;SDS011;11667;51.706;4.856;2023-04-19T03:47:51;23.50;;;14.05;;
23001;SDS011;11667;51.706;4.856;2023-04-19T03:50:20;22.77;;;13.93;;
23001;SDS011;11667;51.706;4.856;2023-04-19T03:52:50;22.93;;;13.28;;
23001;SDS011;11667;51.706;4.856;2023-04-19T03:55:21;24.87;;;13.88;;
23001;SDS011;11667;51.706;4.856;2023-04-19T03:57:50;24.18;;;13.93;;
23001;SDS011;11667;51.706;4.856;2023-04-19T04:00:22;21.25;;;13.43;;
23001;SDS011;11667;51.706;4.856;2023-04-19T04:02:53;25.12;;;14.25;;
23001;SDS011;11667;51.706;4.856;2023-04-19T04:05:23;20.57;;;13.10;;
23001;SDS011;11667;51.706;4.856;2023-04-19T04:07:55;20.15;;;13.38;;
23001;SDS011;11667;51.706;4.856;2023-04-19T04:10:25;21.65;;;13.78;;
23001;SDS011;11667;51.706;4.856;2023-04-19T04:12:55;24.95;;;13.80;;
23001;SDS011;11667;51.706;4.856;2023-04-19T04:15:26;22.62;;;13.32;;
23001;SDS011;11667;51.706;4.856;2023-04-19T04:17:56;21.12;;;12.33;;
23001;SDS011;11667;51.706;4.856;2023-04-19T04:20:26;21.95;;;13.13;;
23001;SDS011;11667;51.706;4.856;2023-04-19T04:22:57;24.92;;;13.48;;
23001;SDS011;11667;51.706;4.856;2023-04-19T04:25:27;22.58;;;13.70;;
23001;SDS011;11667;51.706;4.856;2023-04-19T04:27:57;25.20;;;13.90;;
23001;SDS011;11667;51.706;4.856;2023-04-19T04:30:27;22.62;;;13.95;;
23001;SDS011;11667;51.706;4.856;2023-04-19T04:32:56;26.60;;;14.50;;
23001;SDS011;11667;51.706;4.856;2023-04-19T04:35:26;25.85;;;14.38;;
23001;SDS011;11667;51.706;4.856;2023-04-19T04:37:58;24.10;;;14.15;;
23001;SDS011;11667;51.706;4.856;2023-04-19T04:40:29;24.50;;;14.38;;
23001;SDS011;11667;51.706;4.856;2023-04-19T04:42:58;22.48;;;13.15;;
23001;SDS011;11667;51.706;4.856;2023-04-19T04:45:30;19.95;;;12.40;;
23001;SDS011;11667;51.706;4.856;2023-04-19T04:48:02;24.45;;;13.10;;
23001;SDS011;11667;51.706;4.856;2023-04-19T04:50:32;25.97;;;15.30;;
23001;SDS011;11667;51.706;4.856;2023-04-19T04:53:03;22.93;;;13.55;;
23001;SDS011;11667;51.706;4.856;2023-04-19T04:55:33;23.10;;;12.40;;
23001;SDS011;11667;51.706;4.856;2023-04-19T04:58:04;28.17;;;13.62;;
23001;SDS011;11667;51.706;4.856;2023-04-19T05:00:35;22.17;;;12.40;;
23001;SDS011;11667;51.706;4.856;2023-04-19T05:03:06;21.50;;;12.35;;
23001;SDS011;11667;51.706;4.856;2023-04-19T05:05:38;20.60;;;11.88;;
23001;SDS011;11667;51.706;4.856;2023-04-19T05:08:09;18.45;;;10.88;;
23001;SDS011;11667;51.706;4.856;2023-04-19T05:10:38;21.45;;;11.08;;
23001;SDS011;11667;51.706;4.856;2023-04-19T05:13:08;21.68;;;10.58;;
23001;SDS011;11667;51.706;4.856;2023-04-19T05:15:38;18.30;;;11.08;;
23001;SDS011;11667;51.706;4.856;2023-04-19T05:18:07;16.93;;;10.98;;
23001;SDS011;11667;51.706;4.856;2023-04-19T05:20:37;20.50;;;11.53;;
23001;SDS011;11667;51.706;4.856;2023-04-19T05:23:08;18.98;;;11.15;;
23001;SDS011;11667;51.706;4.856;2023-04-19T05:25:38;20.35;;;11.00;;
23001;SDS011;11667;51.706;4.856;2023-04-19T05:28:08;20.02;;;11.63;;
23001;SDS011;11667;51.706;4.856;2023-04-19T05:30:39;17.52;;;10.43;;
23001;SDS011;11667;51.706;4.856;2023-04-19T05:33:09;15.95;;;10.28;;
23001;SDS011;11667;51.706;4.856;2023-04-19T05:35:39;16.50;;;9.88;;
23001;SDS011;11667;51.706;4.856;2023-04-19T05:38:08;19.37;;;10.28;;
23001;SDS011;11667;51.706;4.856;2023-04-19T05:40:37;17.62;;;9.93;;
23001;SDS011;11667;51.706;4.856;2023-04-19T05:43:07;16.73;;;10.15;;
23001;SDS011;11667;51.706;4.856;2023-04-19T05:45:36;19.23;;;9.85;;
23001;SDS011;11667;51.706;4.856;2023-04-19T05:48:06;18.70;;;10.40;;
23001;SDS011;11667;51.706;4.856;2023-04-19T05:50:53;15.32;;;9.68;;
23001;SDS011;11667;51.706;4.856;2023-04-19T05:53:26;16.40;;;9.30;;
23001;SDS011;11667;51.706;4.856;2023-04-19T05:55:56;14.80;;;8.73;;
23001;SDS011;11667;51.706;4.856;2023-04-19T05:58:25;15.10;;;9.18;;
23001;SDS011;11667;51.706;4.856;2023-04-19T06:00:55;18.02;;;11.03;;
23001;SDS011;11667;51.706;4.856;2023-04-19T06:03:24;15.43;;;9.58;;
23001;SDS011;11667;51.706;4.856;2023-04-19T06:05:56;20.72;;;10.98;;
23001;SDS011;11667;51.706;4.856;2023-04-19T06:08:25;15.98;;;9.70;;
23001;SDS011;11667;51.706;4.856;2023-04-19T06:10:54;15.28;;;9.60;;
23001;SDS011;11667;51.706;4.856;2023-04-19T06:13:26;16.62;;;10.65;;
23001;SDS011;11667;51.706;4.856;2023-04-19T06:15:55;17.48;;;10.23;;
23001;SDS011;11667;51.706;4.856;2023-04-19T06:18:25;20.48;;;9.75;;
23001;SDS011;11667;51.706;4.856;2023-04-19T06:20:54;15.35;;;9.23;;
23001;SDS011;11667;51.706;4.856;2023-04-19T06:23:25;19.02;;;10.48;;
23001;SDS011;11667;51.706;4.856;2023-04-19T06:25:55;15.98;;;9.23;;
23001;SDS011;11667;51.706;4.856;2023-04-19T06:28:25;13.90;;;8.88;;
23001;SDS011;11667;51.706;4.856;2023-04-19T06:30:54;14.40;;;8.78;;
23001;SDS011;11667;51.706;4.856;2023-04-19T06:33:24;12.68;;;7.62;;
23001;SDS011;11667;51.706;4.856;2023-04-19T06:35:53;11.88;;;7.70;;
23001;SDS011;11667;51.706;4.856;2023-04-19T06:38:22;40.15;;;12.78;;
23001;SDS011;11667;51.706;4.856;2023-04-19T06:40:52;19.77;;;9.88;;
23001;SDS011;11667;51.706;4.856;2023-04-19T06:43:21;15.90;;;9.05;;
23001;SDS011;11667;51.706;4.856;2023-04-19T06:45:59;17.70;;;10.28;;
23001;SDS011;11667;51.706;4.856;2023-04-19T06:48:29;13.95;;;8.48;;
23001;SDS011;11667;51.706;4.856;2023-04-19T06:50:58;14.47;;;8.15;;
23001;SDS011;11667;51.706;4.856;2023-04-19T06:53:28;11.85;;;8.05;;
23001;SDS011;11667;51.706;4.856;2023-04-19T06:55:58;12.53;;;7.83;;
23001;SDS011;11667;51.706;4.856;2023-04-19T06:58:28;17.52;;;7.70;;
23001;SDS011;11667;51.706;4.856;2023-04-19T07:01:04;12.00;;;7.33;;
23001;SDS011;11667;51.706;4.856;2023-04-19T07:06:03;13.38;;;7.28;;
23001;SDS011;11667;51.706;4.856;2023-04-19T07:08:33;15.28;;;8.68;;
23001;SDS011;11667;51.706;4.856;2023-04-19T07:11:06;14.47;;;8.00;;
23001;SDS011;11667;51.706;4.856;2023-04-19T07:13:35;14.25;;;8.28;;
23001;SDS011;11667;51.706;4.856;2023-04-19T07:16:05;14.65;;;7.90;;
23001;SDS011;11667;51.706;4.856;2023-04-19T07:18:35;16.02;;;9.60;;
23001;SDS011;11667;51.706;4.856;2023-04-19T07:21:06;12.30;;;8.18;;
23001;SDS011;11667;51.706;4.856;2023-04-19T07:23:35;16.02;;;9.10;;
23001;SDS011;11667;51.706;4.856;2023-04-19T07:26:05;18.42;;;9.30;;
23001;SDS011;11667;51.706;4.856;2023-04-19T07:28:35;21.17;;;10.00;;
23001;SDS011;11667;51.706;4.856;2023-04-19T07:31:04;16.93;;;8.53;;
23001;SDS011;11667;51.706;4.856;2023-04-19T07:33:34;15.83;;;8.65;;
23001;SDS011;11667;51.706;4.856;2023-04-19T07:36:04;14.55;;;9.15;;
23001;SDS011;11667;51.706;4.856;2023-04-19T07:38:34;16.25;;;8.78;;
23001;SDS011;11667;51.706;4.856;2023-04-19T07:41:03;16.90;;;9.30;;
23001;SDS011;11667;51.706;4.856;2023-04-19T07:43:33;18.52;;;9.30;;
23001;SDS011;11667;51.706;4.856;2023-04-19T07:46:09;14.60;;;8.28;;
23001;SDS011;11667;51.706;4.856;2023-04-19T07:48:39;16.37;;;7.97;;
23001;SDS011;11667;51.706;4.856;2023-04-19T07:51:12;16.32;;;9.43;;
23001;SDS011;11667;51.706;4.856;2023-04-19T07:53:45;15.20;;;8.63;;
23001;SDS011;11667;51.706;4.856;2023-04-19T07:56:15;13.68;;;8.63;;
23001;SDS011;11667;51.706;4.856;2023-04-19T07:58:46;13.93;;;8.70;;
23001;SDS011;11667;51.706;4.856;2023-04-19T08:01:17;14.45;;;8.50;;
23001;SDS011;11667;51.706;4.856;2023-04-19T08:03:47;11.70;;;7.47;;
23001;SDS011;11667;51.706;4.856;2023-04-19T08:06:16;13.25;;;7.95;;
23001;SDS011;11667;51.706;4.856;2023-04-19T08:08:47;17.25;;;8.40;;
23001;SDS011;11667;51.706;4.856;2023-04-19T08:11:17;12.43;;;7.75;;
23001;SDS011;11667;51.706;4.856;2023-04-19T08:13:47;16.20;;;8.35;;
23001;SDS011;11667;51.706;4.856;2023-04-19T08:16:18;16.17;;;8.43;;
23001;SDS011;11667;51.706;4.856;2023-04-19T08:18:49;16.10;;;9.03;;
23001;SDS011;11667;51.706;4.856;2023-04-19T08:21:19;12.40;;;7.70;;
23001;SDS011;11667;51.706;4.856;2023-04-19T08:23:50;13.53;;;8.68;;
23001;SDS011;11667;51.706;4.856;2023-04-19T08:26:21;23.07;;;9.18;;
23001;SDS011;11667;51.706;4.856;2023-04-19T08:28:50;27.30;;;9.95;;
23001;SDS011;11667;51.706;4.856;2023-04-19T08:31:20;12.03;;;7.00;;
23001;SDS011;11667;51.706;4.856;2023-04-19T08:33:49;14.33;;;7.75;;
23001;SDS011;11667;51.706;4.856;2023-04-19T08:36:18;11.93;;;6.50;;
23001;SDS011;11667;51.706;4.856;2023-04-19T08:38:50;12.53;;;7.70;;
23001;SDS011;11667;51.706;4.856;2023-04-19T08:41:22;10.85;;;7.42;;
23001;SDS011;11667;51.706;4.856;2023-04-19T08:43:52;11.80;;;6.80;;
23001;SDS011;11667;51.706;4.856;2023-04-19T08:46:23;13.05;;;7.92;;
23001;SDS011;11667;51.706;4.856;2023-04-19T08:48:53;13.18;;;7.80;;
23001;SDS011;11667;51.706;4.856;2023-04-19T08:51:23;11.40;;;6.67;;
23001;SDS011;11667;51.706;4.856;2023-04-19T08:53:53;14.78;;;6.25;;
23001;SDS011;11667;51.706;4.856;2023-04-19T08:56:24;13.10;;;6.65;;
23001;SDS011;11667;51.706;4.856;2023-04-19T08:58:56;10.78;;;6.85;;
23001;SDS011;11667;51.706;4.856;2023-04-19T09:01:27;10.90;;;6.22;;
23001;SDS011;11667;51.706;4.856;2023-04-19T09:03:58;11.15;;;6.12;;
23001;SDS011;11667;51.706;4.856;2023-04-19T09:06:33;8.60;;;5.65;;
23001;SDS011;11667;51.706;4.856;2023-04-19T09:09:25;8.33;;;5.35;;
23001;SDS011;11667;51.706;4.856;2023-04-19T09:11:57;10.98;;;6.17;;
23001;SDS011;11667;51.706;4.856;2023-04-19T09:14:27;8.33;;;5.78;;
23001;SDS011;11667;51.706;4.856;2023-04-19T09:17:12;8.45;;;5.08;;
23001;SDS011;11667;51.706;4.856;2023-04-19T09:19:45;9.63;;;5.35;;
23001;SDS011;11667;51.706;4.856;2023-04-19T09:22:17;8.75;;;5.30;;
23001;SDS011;11667;51.706;4.856;2023-04-19T09:24:46;8.95;;;5.25;;
23001;SDS011;11667;51.706;4.856;2023-04-19T09:27:24;8.65;;;4.72;;
23001;SDS011;11667;51.706;4.856;2023-04-19T09:29:58;7.97;;;5.03;;
23001;SDS011;11667;51.706;4.856;2023-04-19T09:32:43;8.40;;;4.75;;
23001;SDS011;11667;51.706;4.856;2023-04-19T09:35:14;9.63;;;4.70;;
23001;SDS011;11667;51.706;4.856;2023-04-19T09:37:57;8.85;;;4.62;;
23001;SDS011;11667;51.706;4.856;2023-04-19T09:40:29;7.42;;;4.17;;
23001;SDS011;11667;51.706;4.856;2023-04-19T09:42:58;7.20;;;4.00;;
23001;SDS011;11667;51.706;4.856;2023-04-19T09:45:43;6.97;;;4.50;;
23001;SDS011;11667;51.706;4.856;2023-04-19T09:48:13;6.65;;;3.87;;
23001;SDS011;11667;51.706;4.856;2023-04-19T09:50:50;7.28;;;4.20;;
23001;SDS011;11667;51.706;4.856;2023-04-19T09:53:23;6.35;;;4.28;;
23001;SDS011;11667;51.706;4.856;2023-04-19T09:55:53;8.60;;;4.30;;
23001;SDS011;11667;51.706;4.856;2023-04-19T09:58:24;5.20;;;4.07;;
23001;SDS011;11667;51.706;4.856;2023-04-19T10:00:56;5.55;;;3.98;;
23001;SDS011;11667;51.706;4.856;2023-04-19T10:03:28;5.58;;;3.85;;
23001;SDS011;11667;51.706;4.856;2023-04-19T10:05:59;5.47;;;3.62;;
23001;SDS011;11667;51.706;4.856;2023-04-19T10:08:30;8.83;;;3.50;;
23001;SDS011;11667;51.706;4.856;2023-04-19T10:11:00;6.50;;;3.17;;
23001;SDS011;11667;51.706;4.856;2023-04-19T10:13:29;7.00;;;3.02;;
23001;SDS011;11667;51.706;4.856;2023-04-19T10:15:59;5.17;;;3.50;;
23001;SDS011;11667;51.706;4.856;2023-04-19T10:18:31;3.87;;;3.10;;
23001;SDS011;11667;51.706;4.856;2023-04-19T10:21:02;4.72;;;2.90;;
23001;SDS011;11667;51.706;4.856;2023-04-19T10:23:33;7.00;;;2.95;;
23001;SDS011;11667;51.706;4.856;2023-04-19T10:26:03;5.03;;;3.00;;
23001;SDS011;11667;51.706;4.856;2023-04-19T10:28:34;3.85;;;2.75;;
23001;SDS011;11667;51.706;4.856;2023-04-19T10:31:04;5.08;;;2.55;;
23001;SDS011;11667;51.706;4.856;2023-04-19T10:33:35;4.95;;;2.55;;
23001;SDS011;11667;51.706;4.856;2023-04-19T10:36:13;4.97;;;2.30;;
23001;SDS011;11667;51.706;4.856;2023-04-19T10:38:37;5.10;;;2.83;;
23001;SDS011;11667;51.706;4.856;2023-04-19T10:41:09;5.83;;;3.00;;
23001;SDS011;11667;51.706;4.856;2023-04-19T10:43:44;6.75;;;2.42;;
23001;SDS011;11667;51.706;4.856;2023-04-19T10:48:58;3.55;;;2.35;;
23001;SDS011;11667;51.706;4.856;2023-04-19T10:51:36;6.22;;;2.60;;
23001;SDS011;11667;51.706;4.856;2023-04-19T10:54:08;8.03;;;2.25;;
23001;SDS011;11667;51.706;4.856;2023-04-19T10:57:00;5.20;;;2.17;;
23001;SDS011;11667;51.706;4.856;2023-04-19T10:59:33;5.22;;;2.40;;
23001;SDS011;11667;51.706;4.856;2023-04-19T11:02:04;4.75;;;2.02;;
23001;SDS011;11667;51.706;4.856;2023-04-19T11:07:08;4.53;;;2.60;;
23001;SDS011;11667;51.706;4.856;2023-04-19T11:09:38;5.28;;;2.00;;
23001;SDS011;11667;51.706;4.856;2023-04-19T11:12:11;3.55;;;1.92;;
23001;SDS011;11667;51.706;4.856;2023-04-19T11:14:42;5.62;;;2.77;;
23001;SDS011;11667;51.706;4.856;2023-04-19T11:17:25;4.50;;;2.30;;
23001;SDS011;11667;51.706;4.856;2023-04-19T11:25:05;10.08;;;3.08;;
23001;SDS011;11667;51.706;4.856;2023-04-19T11:27:48;8.48;;;3.25;;
23001;SDS011;11667;51.706;4.856;2023-04-19T11:30:20;5.97;;;2.67;;
23001;SDS011;11667;51.706;4.856;2023-04-19T11:32:52;3.75;;;2.65;;
23001;SDS011;11667;51.706;4.856;2023-04-19T11:35:23;5.05;;;3.30;;
23001;SDS011;11667;51.706;4.856;2023-04-19T11:37:57;4.37;;;2.67;;
23001;SDS011;11667;51.706;4.856;2023-04-19T11:40:28;5.40;;;3.30;;
23001;SDS011;11667;51.706;4.856;2023-04-19T11:42:59;7.42;;;3.33;;
23001;SDS011;11667;51.706;4.856;2023-04-19T11:45:30;4.65;;;3.00;;
23001;SDS011;11667;51.706;4.856;2023-04-19T11:48:06;2.90;;;2.17;;
23001;SDS011;11667;51.706;4.856;2023-04-19T11:50:39;3.30;;;2.60;;
23001;SDS011;11667;51.706;4.856;2023-04-19T11:53:14;6.80;;;3.60;;
23001;SDS011;11667;51.706;4.856;2023-04-19T11:55:45;5.20;;;3.40;;
23001;SDS011;11667;51.706;4.856;2023-04-19T11:58:36;7.92;;;2.95;;
23001;SDS011;11667;51.706;4.856;2023-04-19T12:01:14;4.22;;;3.05;;
23001;SDS011;11667;51.706;4.856;2023-04-19T12:03:52;6.35;;;2.70;;
23001;SDS011;11667;51.706;4.856;2023-04-19T12:06:25;4.58;;;2.47;;
23001;SDS011;11667;51.706;4.856;2023-04-19T12:08:55;11.20;;;4.10;;
23001;SDS011;11667;51.706;4.856;2023-04-19T12:11:27;13.28;;;3.20;;
23001;SDS011;11667;51.706;4.856;2023-04-19T12:14:18;6.15;;;2.58;;
23001;SDS011;11667;51.706;4.856;2023-04-19T12:17:01;7.40;;;2.58;;
23001;SDS011;11667;51.706;4.856;2023-04-19T12:19:48;8.83;;;2.58;;
23001;SDS011;11667;51.706;4.856;2023-04-19T12:22:12;7.83;;;3.30;;
23001;SDS011;11667;51.706;4.856;2023-04-19T12:24:42;8.17;;;3.13;;
23001;SDS011;11667;51.706;4.856;2023-04-19T12:27:12;7.03;;;2.70;;
23001;SDS011;11667;51.706;4.856;2023-04-19T12:29:44;3.85;;;2.33;;
23001;SDS011;11667;51.706;4.856;2023-04-19T12:32:14;4.62;;;3.02;;
23001;SDS011;11667;51.706;4.856;2023-04-19T12:34:43;19.25;;;3.65;;
23001;SDS011;11667;51.706;4.856;2023-04-19T12:37:12;6.35;;;2.47;;
23001;SDS011;11667;51.706;4.856;2023-04-19T12:39:42;4.12;;;2.92;;
23001;SDS011;11667;51.706;4.856;2023-04-19T12:42:12;5.05;;;2.72;;
23001;SDS011;11667;51.706;4.856;2023-04-19T12:44:41;8.78;;;3.40;;
23001;SDS011;11667;51.706;4.856;2023-04-19T12:47:11;9.75;;;3.35;;
23001;SDS011;11667;51.706;4.856;2023-04-19T12:49:40;9.40;;;3.52;;
23001;SDS011;11667;51.706;4.856;2023-04-19T12:52:10;7.92;;;3.40;;
23001;SDS011;11667;51.706;4.856;2023-04-19T12:54:39;7.65;;;3.22;;
23001;SDS011;11667;51.706;4.856;2023-04-19T12:57:09;8.38;;;3.17;;
23001;SDS011;11667;51.706;4.856;2023-04-19T12:59:39;6.30;;;3.00;;
23001;SDS011;11667;51.706;4.856;2023-04-19T13:02:08;12.43;;;5.20;;
23001;SDS011;11667;51.706;4.856;2023-04-19T13:04:38;7.12;;;3.35;;
23001;SDS011;11667;51.706;4.856;2023-04-19T13:07:07;6.45;;;4.20;;
23001;SDS011;11667;51.706;4.856;2023-04-19T13:09:36;7.62;;;4.00;;
23001;SDS011;11667;51.706;4.856;2023-04-19T13:12:06;5.10;;;3.10;;
23001;SDS011;11667;51.706;4.856;2023-04-19T13:14:36;6.90;;;3.60;;
23001;SDS011;11667;51.706;4.856;2023-04-19T13:17:06;8.68;;;3.10;;
23001;SDS011;11667;51.706;4.856;2023-04-19T13:19:35;5.65;;;2.70;;
23001;SDS011;11667;51.706;4.856;2023-04-19T13:22:05;6.53;;;3.02;;
23001;SDS011;11667;51.706;4.856;2023-04-19T13:24:34;4.92;;;3.25;;
23001;SDS011;11667;51.706;4.856;2023-04-19T13:27:04;15.10;;;3.27;;
23001;SDS011;11667;51.706;4.856;2023-04-19T13:29:35;9.38;;;3.55;;
23001;SDS011;11667;51.706;4.856;2023-04-19T13:32:05;11.97;;;3.05;;
23001;SDS011;11667;51.706;4.856;2023-04-19T13:34:37;6.87;;;2.80;;
23001;SDS011;11667;51.706;4.856;2023-04-19T13:37:09;5.97;;;2.75;;
23001;SDS011;11667;51.706;4.856;2023-04-19T13:39:39;7.35;;;2.75;;
23001;SDS011;11667;51.706;4.856;2023-04-19T13:42:08;7.28;;;3.50;;
23001;SDS011;11667;51.706;4.856;2023-04-19T13:44:38;4.05;;;2.50;;
23001;SDS011;11667;51.706;4.856;2023-04-19T13:47:07;4.78;;;3.10;;
23001;SDS011;11667;51.706;4.856;2023-04-19T13:49:37;7.97;;;3.37;;
23001;SDS011;11667;51.706;4.856;2023-04-19T13:52:06;5.85;;;3.10;;
23001;SDS011;11667;51.706;4.856;2023-04-19T13:54:37;5.67;;;3.27;;
23001;SDS011;11667;51.706;4.856;2023-04-19T13:57:06;9.70;;;3.20;;
23001;SDS011;11667;51.706;4.856;2023-04-19T13:59:36;5.37;;;3.58;;
23001;SDS011;11667;51.706;4.856;2023-04-19T14:02:05;6.90;;;3.67;;
23001;SDS011;11667;51.706;4.856;2023-04-19T14:04:35;4.83;;;3.22;;
23001;SDS011;11667;51.706;4.856;2023-04-19T14:07:05;4.17;;;3.05;;
23001;SDS011;11667;51.706;4.856;2023-04-19T14:09:34;5.17;;;2.95;;
23001;SDS011;11667;51.706;4.856;2023-04-19T14:12:04;6.58;;;2.90;;
23001;SDS011;11667;51.706;4.856;2023-04-19T14:14:36;5.08;;;2.70;;
23001;SDS011;11667;51.706;4.856;2023-04-19T14:17:05;4.25;;;2.90;;
23001;SDS011;11667;51.706;4.856;2023-04-19T14:19:35;6.72;;;3.25;;
23001;SDS011;11667;51.706;4.856;2023-04-19T14:22:04;6.87;;;3.10;;
23001;SDS011;11667;51.706;4.856;2023-04-19T14:24:34;5.67;;;3.37;;
23001;SDS011;11667;51.706;4.856;2023-04-19T14:27:03;4.75;;;3.08;;
23001;SDS011;11667;51.706;4.856;2023-04-19T14:29:34;11.97;;;3.75;;
23001;SDS011;11667;51.706;4.856;2023-04-19T14:32:04;7.67;;;3.60;;
23001;SDS011;11667;51.706;4.856;2023-04-19T14:34:35;6.55;;;3.70;;
23001;SDS011;11667;51.706;4.856;2023-04-19T14:37:04;5.05;;;3.15;;
23001;SDS011;11667;51.706;4.856;2023-04-19T14:39:34;6.70;;;3.50;;
23001;SDS011;11667;51.706;4.856;2023-04-19T14:42:03;7.92;;;4.92;;
23001;SDS011;11667;51.706;4.856;2023-04-19T14:44:33;6.53;;;3.60;;
23001;SDS011;11667;51.706;4.856;2023-04-19T14:47:03;5.62;;;3.60;;
23001;SDS011;11667;51.706;4.856;2023-04-19T14:49:32;7.80;;;4.25;;
23001;SDS011;11667;51.706;4.856;2023-04-19T14:52:02;7.47;;;3.90;;
23001;SDS011;11667;51.706;4.856;2023-04-19T14:54:32;12.07;;;5.00;;
23001;SDS011;11667;51.706;4.856;2023-04-19T14:57:01;12.63;;;5.90;;
23001;SDS011;11667;51.706;4.856;2023-04-19T14:59:30;7.87;;;4.35;;
23001;SDS011;11667;51.706;4.856;2023-04-19T15:02:00;5.97;;;3.72;;
23001;SDS011;11667;51.706;4.856;2023-04-19T15:04:32;5.00;;;3.72;;
23001;SDS011;11667;51.706;4.856;2023-04-19T15:07:05;5.05;;;3.85;;
23001;SDS011;11667;51.706;4.856;2023-04-19T15:09:34;7.67;;;3.72;;
23001;SDS011;11667;51.706;4.856;2023-04-19T15:12:04;4.30;;;3.40;;
23001;SDS011;11667;51.706;4.856;2023-04-19T15:14:33;6.20;;;3.33;;
23001;SDS011;11667;51.706;4.856;2023-04-19T15:17:03;6.05;;;3.90;;